KHWD/HWD METAR and TAF weather

Enter ICAO airport designator
Station Type Date Time Source
KHWD METAR 2020/11/27 13:54 UTC NOAA

KHWD 271354Z 00000KT 10SM CLR 06/M03 A3021 RMK AO2 SLP241 T00611033


Station Type Date Time Source
KHWD Decoded METAR 2020/11/27 13:54 UTC NOAA

HAYWARD AIR TERMINAL, CA, United States (KHWD) 37-40N 122-07W 21M
Nov 27, 2020 - 08:54 AM EST / 2020.11.27 1354 UTC
Wind: Calm:0
Visibility: 10 mile(s):0
Sky conditions: clear
Temperature: 43.0 F (6.1 C)
Dew Point: 26.1 F (-3.3 C)
Relative Humidity: 50%
Pressure (altimeter): 30.21 in. Hg (1023 hPa)
ob: KHWD 271354Z 00000KT 10SM CLR 06/M03 A3021 RMK AO2 SLP241 T00611033
cycle: 14

Station Type Date Time Source
KHWD TAF UTC NOAA

Error!

Example: see airport list